Time;durP1;ratioP1;P1;durP2;ratioP2;P2;SDS_P1;SDS_P2;PMS_P1;PMS_P2;Temp;Humidity;BMP_temperature;BMP_pressure;BME280_temperature;BME280_humidity;BME280_pressure;Samples;Min_cycle;Max_cycle;Signal;HPM_P1;HPM_P2
2023/12/08 00:01:42;;;;;;;27.17;16.93;;;;;;;;;;5073578;28;20025;-60
2023/12/08 00:04:08;;;;;;;23.73;17.77;;;;;;;;;;5072185;28;20072;-60
2023/12/08 00:06:34;;;;;;;25.20;17.77;;;;;;;;;;5073671;28;20028;-60
2023/12/08 00:09:01;;;;;;;22.23;18.27;;;;;;;;;;5073271;28;20032;-60
2023/12/08 00:11:27;;;;;;;22.73;17.73;;;;;;;;;;5073452;28;20028;-60
2023/12/08 00:13:53;;;;;;;25.17;18.67;;;;;;;;;;5071813;28;20489;-60
2023/12/08 00:16:19;;;;;;;24.50;17.93;;;;;;;;;;5073211;28;20028;-60
2023/12/08 00:18:45;;;;;;;22.57;16.93;;;;;;;;;;5071832;28;20029;-60
2023/12/08 00:21:11;;;;;;;19.00;15.13;;;;;;;;;;5073123;28;20031;-60
2023/12/08 00:23:37;;;;;;;21.17;15.27;;;;;;;;;;5073221;28;20453;-60
2023/12/08 00:26:03;;;;;;;19.87;14.97;;;;;;;;;;5073333;28;20024;-60
2023/12/08 00:28:29;;;;;;;20.00;14.73;;;;;;;;;;5071427;28;20020;-60
2023/12/08 00:30:55;;;;;;;18.17;13.67;;;;;;;;;;5072954;28;20059;-60
2023/12/08 00:33:21;;;;;;;19.97;14.07;;;;;;;;;;5072854;28;20509;-60
2023/12/08 00:35:48;;;;;;;19.80;15.23;;;;;;;;;;5058704;28;20053;-60
2023/12/08 00:38:14;;;;;;;20.80;14.87;;;;;;;;;;5057342;28;20024;-61
2023/12/08 00:40:41;;;;;;;20.53;14.23;;;;;;;;;;5069681;28;20020;-60
2023/12/08 00:43:07;;;;;;;19.47;13.90;;;;;;;;;;5071378;28;20036;-59
2023/12/08 00:45:33;;;;;;;16.97;14.60;;;;;;;;;;5069976;28;20100;-59
2023/12/08 00:47:59;;;;;;;18.77;14.33;;;;;;;;;;5060665;28;20025;-59
2023/12/08 00:50:25;;;;;;;21.57;14.93;;;;;;;;;;5072402;28;20119;-60
2023/12/08 00:52:51;;;;;;;19.47;14.93;;;;;;;;;;5072458;28;20021;-60
2023/12/08 00:55:17;;;;;;;20.50;14.63;;;;;;;;;;5071141;28;20051;-60
2023/12/08 00:57:44;;;;;;;19.05;13.93;;;;;;;;;;5071001;28;20466;-60
2023/12/08 01:00:11;;;;;;;19.55;14.77;;;;;;;;;;5072224;28;20029;-59
2023/12/08 01:02:37;;;;;;;19.33;14.87;;;;;;;;;;5072430;28;20091;-60
2023/12/08 01:05:03;;;;;;;22.17;14.17;;;;;;;;;;5072597;28;20044;-59
2023/12/08 01:07:29;;;;;;;18.13;14.80;;;;;;;;;;5072390;28;20440;-59
2023/12/08 01:09:55;;;;;;;19.47;15.13;;;;;;;;;;5072096;28;20113;-60
2023/12/08 01:12:21;;;;;;;20.33;15.50;;;;;;;;;;5072470;28;20025;-60
2023/12/08 01:14:47;;;;;;;19.60;15.17;;;;;;;;;;5070719;28;20494;-60
2023/12/08 01:17:13;;;;;;;17.97;15.00;;;;;;;;;;5072213;28;20017;-59
2023/12/08 01:19:39;;;;;;;23.47;16.63;;;;;;;;;;5072374;28;20112;-60
2023/12/08 01:22:05;;;;;;;21.57;15.90;;;;;;;;;;5072022;28;20072;-60
2023/12/08 01:24:31;;;;;;;22.87;17.57;;;;;;;;;;5072101;28;20020;-60
2023/12/08 01:26:57;;;;;;;22.00;16.67;;;;;;;;;;5071889;28;20058;-60
2023/12/08 01:29:23;;;;;;;21.95;16.42;;;;;;;;;;5071822;28;20035;-60
2023/12/08 01:31:49;;;;;;;24.53;17.80;;;;;;;;;;5070654;28;20028;-60
2023/12/08 01:34:15;;;;;;;22.20;16.60;;;;;;;;;;5072143;28;20047;-59
2023/12/08 01:36:41;;;;;;;22.07;17.07;;;;;;;;;;5061652;28;20384;-59
2023/12/08 01:39:07;;;;;;;22.47;17.13;;;;;;;;;;5068464;28;20028;-59
2023/12/08 01:41:33;;;;;;;25.73;16.43;;;;;;;;;;5071973;28;20074;-59
2023/12/08 01:43:59;;;;;;;24.53;17.27;;;;;;;;;;5071503;28;20049;-59
2023/12/08 01:46:26;;;;;;;19.77;16.27;;;;;;;;;;5071880;28;20020;-59
2023/12/08 01:48:52;;;;;;;19.70;15.50;;;;;;;;;;5071689;28;20016;-59
2023/12/08 01:51:19;;;;;;;19.07;16.70;;;;;;;;;;5074194;28;20017;-59
2023/12/08 01:53:45;;;;;;;22.73;16.30;;;;;;;;;;5077136;28;20491;-59
2023/12/08 01:56:12;;;;;;;18.67;15.57;;;;;;;;;;5076257;28;20047;-60
2023/12/08 01:58:39;;;;;;;21.17;15.37;;;;;;;;;;5066470;28;20028;-59
2023/12/08 02:01:05;;;;;;;21.47;15.77;;;;;;;;;;5078374;28;20420;-59
2023/12/08 02:03:35;;;;;;;21.20;16.50;;;;;;;;;;5078365;28;20017;-59
2023/12/08 02:06:01;;;;;;;21.30;15.97;;;;;;;;;;5072716;28;20036;-60
2023/12/08 02:08:28;;;;;;;19.53;15.27;;;;;;;;;;5077381;28;20040;-60
2023/12/08 02:10:54;;;;;;;20.17;15.23;;;;;;;;;;5078255;28;20025;-60
2023/12/08 02:13:23;;;;;;;19.70;16.03;;;;;;;;;;5078108;28;20013;-60
2023/12/08 02:15:52;;;;;;;20.97;14.87;;;;;;;;;;5078191;28;20029;-60
2023/12/08 02:18:18;;;;;;;20.73;17.00;;;;;;;;;;5077029;28;20039;-60
2023/12/08 02:20:44;;;;;;;23.17;17.10;;;;;;;;;;5077573;28;20031;-60
2023/12/08 02:23:10;;;;;;;23.93;16.27;;;;;;;;;;5077276;28;20043;-60
2023/12/08 02:25:36;;;;;;;23.63;17.83;;;;;;;;;;5069755;28;20032;-60
2023/12/08 02:28:05;;;;;;;22.30;16.73;;;;;;;;;;5077183;28;20028;-60
2023/12/08 02:30:31;;;;;;;19.97;16.70;;;;;;;;;;5077504;28;20426;-60
2023/12/08 02:33:08;;;;;;;20.63;16.70;;;;;;;;;;5077274;28;20028;-60
2023/12/08 02:35:37;;;;;;;20.50;15.63;;;;;;;;;;5077331;28;20101;-60
2023/12/08 02:38:04;;;;;;;19.23;13.47;;;;;;;;;;5077292;28;20044;-60
2023/12/08 02:40:30;;;;;;;15.73;12.70;;;;;;;;;;5077357;28;20028;-60
2023/12/08 02:42:57;;;;;;;16.57;12.93;;;;;;;;;;5077382;28;20108;-59
2023/12/08 02:45:23;;;;;;;17.63;13.07;;;;;;;;;;5077591;28;20033;-60
2023/12/08 02:47:49;;;;;;;16.73;12.07;;;;;;;;;;5077711;28;20385;-60
2023/12/08 02:50:15;;;;;;;17.23;12.40;;;;;;;;;;5077785;28;20032;-60
2023/12/08 02:52:41;;;;;;;14.50;11.57;;;;;;;;;;5078149;28;20020;-60
2023/12/08 02:55:07;;;;;;;17.83;12.10;;;;;;;;;;5075102;28;20145;-60
2023/12/08 02:57:33;;;;;;;14.57;11.03;;;;;;;;;;5072581;28;20021;-60
2023/12/08 02:59:59;;;;;;;13.27;11.13;;;;;;;;;;5078144;28;20025;-60
2023/12/08 03:02:25;;;;;;;15.70;11.00;;;;;;;;;;5076503;28;20499;-60
2023/12/08 03:04:51;;;;;;;13.10;10.10;;;;;;;;;;5074542;28;20111;-60
2023/12/08 03:07:17;;;;;;;12.40;10.53;;;;;;;;;;5074509;28;20031;-60
2023/12/08 03:09:43;;;;;;;13.37;10.13;;;;;;;;;;5071000;28;20505;-60
2023/12/08 03:12:09;;;;;;;15.77;10.70;;;;;;;;;;5071819;28;20016;-60
2023/12/08 03:14:35;;;;;;;14.20;10.67;;;;;;;;;;5071054;28;20027;-60
2023/12/08 03:17:01;;;;;;;15.80;11.20;;;;;;;;;;5070480;28;20032;-60
2023/12/08 03:19:27;;;;;;;15.67;11.20;;;;;;;;;;5073860;28;20052;-59
2023/12/08 03:21:53;;;;;;;14.17;11.50;;;;;;;;;;5065362;28;20028;-60
2023/12/08 03:24:19;;;;;;;16.87;12.07;;;;;;;;;;5056249;28;20102;-60
2023/12/08 03:26:44;;;;;;;18.63;12.77;;;;;;;;;;5064988;28;20044;-59
2023/12/08 03:29:10;;;;;;;15.70;12.50;;;;;;;;;;5068003;28;20068;-59
2023/12/08 03:31:37;;;;;;;17.33;12.23;;;;;;;;;;5068048;28;21252;-59
2023/12/08 03:34:03;;;;;;;14.23;11.50;;;;;;;;;;5071100;28;20082;-60
2023/12/08 03:36:29;;;;;;;14.30;10.53;;;;;;;;;;5074081;28;20028;-59
2023/12/08 03:38:55;;;;;;;12.13;10.73;;;;;;;;;;5074311;28;20024;-59
2023/12/08 03:41:26;;;;;;;13.70;10.87;;;;;;;;;;5073876;28;20546;-60
2023/12/08 03:43:52;;;;;;;16.43;10.63;;;;;;;;;;5073768;28;20056;-59
2023/12/08 03:46:18;;;;;;;10.87;9.50;;;;;;;;;;5064135;28;20032;-60
2023/12/08 03:48:44;;;;;;;11.83;9.97;;;;;;;;;;5073885;28;20466;-59
2023/12/08 03:51:11;;;;;;;14.10;9.53;;;;;;;;;;5073652;28;20025;-59
2023/12/08 03:53:37;;;;;;;11.50;10.20;;;;;;;;;;5073616;28;20017;-60
2023/12/08 03:56:03;;;;;;;13.13;9.77;;;;;;;;;;5073634;28;20039;-60
2023/12/08 03:58:29;;;;;;;16.17;10.37;;;;;;;;;;5073373;28;20039;-59
2023/12/08 04:00:55;;;;;;;13.33;10.57;;;;;;;;;;5073674;28;20020;-59
2023/12/08 04:03:22;;;;;;;15.90;11.30;;;;;;;;;;5073445;28;20028;-59
2023/12/08 04:05:48;;;;;;;12.93;11.13;;;;;;;;;;5073644;28;20551;-59
2023/12/08 04:08:14;;;;;;;15.27;10.50;;;;;;;;;;5073561;28;20012;-60
2023/12/08 04:10:40;;;;;;;14.80;11.50;;;;;;;;;;5073277;28;20124;-60
2023/12/08 04:13:06;;;;;;;16.67;12.67;;;;;;;;;;5073370;28;20017;-60
2023/12/08 04:15:32;;;;;;;20.37;15.40;;;;;;;;;;5072253;28;20040;-60
2023/12/08 04:17:58;;;;;;;19.40;14.43;;;;;;;;;;5073487;28;20063;-60
2023/12/08 04:20:24;;;;;;;23.37;17.70;;;;;;;;;;5072960;28;20378;-60
2023/12/08 04:22:50;;;;;;;24.83;18.60;;;;;;;;;;5073343;28;20021;-60
2023/12/08 04:25:16;;;;;;;22.37;18.07;;;;;;;;;;5073049;28;20025;-60
2023/12/08 04:27:42;;;;;;;22.57;18.07;;;;;;;;;;5071500;28;20161;-60
2023/12/08 04:30:08;;;;;;;21.10;18.00;;;;;;;;;;5072913;28;20036;-60
2023/12/08 04:32:34;;;;;;;25.83;19.13;;;;;;;;;;5072878;28;20020;-59
2023/12/08 04:35:00;;;;;;;23.90;19.07;;;;;;;;;;5063377;28;20021;-62
2023/12/08 04:37:27;;;;;;;28.37;20.77;;;;;;;;;;5068174;28;20084;-60
2023/12/08 04:39:52;;;;;;;24.90;19.90;;;;;;;;;;5071679;28;20091;-59
2023/12/08 04:42:18;;;;;;;24.13;19.33;;;;;;;;;;5072556;28;20020;-59
2023/12/08 04:44:44;;;;;;;26.70;21.07;;;;;;;;;;5071039;28;20036;-59
2023/12/08 04:47:12;;;;;;;25.80;19.30;;;;;;;;;;5072706;28;20390;-59
2023/12/08 04:49:38;;;;;;;22.57;19.47;;;;;;;;;;5072731;28;20102;-59
2023/12/08 04:52:04;;;;;;;24.40;19.97;;;;;;;;;;5072578;28;20032;-59
2023/12/08 04:54:30;;;;;;;27.53;20.00;;;;;;;;;;5071183;28;20024;-59
2023/12/08 04:56:56;;;;;;;27.13;20.17;;;;;;;;;;5072358;28;20051;-60
2023/12/08 04:59:22;;;;;;;24.47;19.80;;;;;;;;;;5072404;28;20053;-62
2023/12/08 05:01:51;;;;;;;22.97;18.13;;;;;;;;;;5072353;28;20029;-60
2023/12/08 05:04:18;;;;;;;22.43;18.37;;;;;;;;;;5072470;28;20029;-60
2023/12/08 05:06:44;;;;;;;22.03;17.37;;;;;;;;;;5072337;28;20028;-60
2023/12/08 05:09:10;;;;;;;22.67;16.83;;;;;;;;;;5072201;28;20362;-60
2023/12/08 05:11:36;;;;;;;22.53;16.47;;;;;;;;;;5072498;28;20017;-60
2023/12/08 05:14:02;;;;;;;22.13;16.57;;;;;;;;;;5070835;28;20107;-60
2023/12/08 05:16:29;;;;;;;21.17;15.37;;;;;;;;;;5072173;28;20372;-60
2023/12/08 05:18:55;;;;;;;20.27;15.47;;;;;;;;;;5066455;28;20455;-60
2023/12/08 05:21:21;;;;;;;20.17;16.20;;;;;;;;;;5063870;28;20062;-59
2023/12/08 05:23:47;;;;;;;21.67;17.47;;;;;;;;;;5072334;28;20138;-59
2023/12/08 05:26:40;;;;;;;24.43;19.20;;;;;;;;;;5071984;28;20517;-60
2023/12/08 05:29:06;;;;;;;22.07;17.73;;;;;;;;;;5072036;28;20126;-59
2023/12/08 05:31:32;;;;;;;28.00;19.53;;;;;;;;;;5071887;28;20108;-60
2023/12/08 05:33:58;;;;;;;24.60;19.47;;;;;;;;;;5071989;28;20489;-59
2023/12/08 05:36:24;;;;;;;21.10;17.40;;;;;;;;;;5072105;28;20024;-60
2023/12/08 05:38:50;;;;;;;21.93;17.00;;;;;;;;;;5072130;28;20111;-60
2023/12/08 05:41:16;;;;;;;19.47;15.73;;;;;;;;;;5071891;28;20491;-60
2023/12/08 05:43:42;;;;;;;21.43;15.63;;;;;;;;;;5071625;28;20044;-60
2023/12/08 05:46:08;;;;;;;20.20;15.50;;;;;;;;;;5070348;28;20484;-59
2023/12/08 05:48:34;;;;;;;21.90;14.20;;;;;;;;;;5071731;28;20025;-60
2023/12/08 05:51:00;;;;;;;18.40;13.60;;;;;;;;;;5071838;28;20343;-60
2023/12/08 05:53:26;;;;;;;17.10;14.10;;;;;;;;;;5071622;28;20342;-59
2023/12/08 05:55:52;;;;;;;19.30;13.17;;;;;;;;;;5071935;28;20104;-60
2023/12/08 06:07:28;;;;;;;18.47;14.43;;;;;;;;;;5058719;28;20101;-60
2023/12/08 06:09:54;;;;;;;21.43;14.87;;;;;;;;;;5071816;28;20553;-60
2023/12/08 06:12:20;;;;;;;21.03;13.57;;;;;;;;;;5071549;28;20111;-60
2023/12/08 06:14:46;;;;;;;17.67;14.63;;;;;;;;;;5070923;28;20071;-60
2023/12/08 06:17:12;;;;;;;15.00;13.37;;;;;;;;;;5071426;28;20070;-60
2023/12/08 06:19:39;;;;;;;18.03;14.17;;;;;;;;;;5071447;28;20021;-60
2023/12/08 06:22:05;;;;;;;20.90;15.63;;;;;;;;;;5054467;28;20025;-60
2023/12/08 06:24:31;;;;;;;20.70;15.40;;;;;;;;;;5064890;28;20070;-60
2023/12/08 06:26:57;;;;;;;23.13;15.90;;;;;;;;;;5068129;28;20327;-60
2023/12/08 06:29:23;;;;;;;22.57;15.00;;;;;;;;;;5068091;28;20348;-59
2023/12/08 06:31:49;;;;;;;19.17;16.30;;;;;;;;;;5070139;28;20020;-59
2023/12/08 06:34:15;;;;;;;20.63;16.70;;;;;;;;;;5053617;28;20492;-60
2023/12/08 06:36:45;;;;;;;19.67;16.60;;;;;;;;;;5071601;28;20078;-59
2023/12/08 06:39:12;;;;;;;18.63;15.63;;;;;;;;;;5073329;28;20025;-59
2023/12/08 06:41:38;;;;;;;23.73;16.20;;;;;;;;;;5075240;28;20448;-59
2023/12/08 06:44:04;;;;;;;22.07;16.07;;;;;;;;;;5073352;28;20080;-59
2023/12/08 06:46:30;;;;;;;20.67;16.13;;;;;;;;;;5074851;28;20020;-60
2023/12/08 06:48:56;;;;;;;21.90;16.47;;;;;;;;;;5074848;28;20035;-60
2023/12/08 06:51:22;;;;;;;24.10;16.43;;;;;;;;;;5074623;28;20146;-60
2023/12/08 06:53:48;;;;;;;22.83;16.83;;;;;;;;;;5074756;28;20501;-60
2023/12/08 06:56:15;;;;;;;22.83;17.03;;;;;;;;;;5074729;28;20090;-60
2023/12/08 06:58:41;;;;;;;22.80;16.13;;;;;;;;;;5074796;28;20017;-59
2023/12/08 07:01:07;;;;;;;21.90;15.97;;;;;;;;;;5074711;28;20020;-59
2023/12/08 07:03:33;;;;;;;21.83;16.80;;;;;;;;;;5074633;28;20050;-60
2023/12/08 07:05:59;;;;;;;21.07;16.70;;;;;;;;;;5074709;28;20487;-59
2023/12/08 07:08:25;;;;;;;19.87;16.37;;;;;;;;;;5074892;28;20027;-60
2023/12/08 07:10:51;;;;;;;21.10;16.63;;;;;;;;;;5074564;28;20028;-60
2023/12/08 07:16:20;;;;;;;19.37;14.63;;;;;;;;;;5060960;28;20157;-60
2023/12/08 07:18:46;;;;;;;17.70;14.23;;;;;;;;;;5060037;28;20028;-60
2023/12/08 07:21:12;;;;;;;17.70;13.77;;;;;;;;;;5074550;28;20021;-60
2023/12/08 07:23:38;;;;;;;19.37;15.13;;;;;;;;;;5073043;28;20119;-60
2023/12/08 07:26:04;;;;;;;17.13;14.37;;;;;;;;;;5074399;28;20029;-60
2023/12/08 07:28:30;;;;;;;23.00;13.70;;;;;;;;;;5073155;28;20499;-62
2023/12/08 07:30:57;;;;;;;17.67;14.00;;;;;;;;;;5074195;28;20441;-60
2023/12/08 07:33:23;;;;;;;20.67;14.60;;;;;;;;;;5062477;28;20180;-60
2023/12/08 07:35:49;;;;;;;19.83;14.73;;;;;;;;;;5070814;28;20057;-60
2023/12/08 07:38:15;;;;;;;17.20;13.47;;;;;;;;;;5069561;28;20600;-60
2023/12/08 07:43:45;;;;;;;17.23;13.40;;;;;;;;;;5067374;28;20190;-59
2023/12/08 07:46:11;;;;;;;17.37;12.67;;;;;;;;;;5064324;28;20032;-60
2023/12/08 07:48:37;;;;;;;16.90;12.80;;;;;;;;;;5067993;28;20489;-60
2023/12/08 07:51:03;;;;;;;21.97;13.77;;;;;;;;;;5072077;28;20053;-60
2023/12/08 07:53:30;;;;;;;19.13;12.03;;;;;;;;;;5071363;28;20102;-60
2023/12/08 07:55:56;;;;;;;16.07;13.20;;;;;;;;;;5069894;28;20021;-60
2023/12/08 07:58:22;;;;;;;15.40;11.70;;;;;;;;;;5073632;28;20090;-60
2023/12/08 08:00:48;;;;;;;15.40;12.30;;;;;;;;;;5066619;28;20103;-60
2023/12/08 08:03:14;;;;;;;16.97;11.87;;;;;;;;;;5073722;28;20055;-60
2023/12/08 08:05:40;;;;;;;16.73;12.77;;;;;;;;;;5073561;28;20119;-60
2023/12/08 08:08:06;;;;;;;16.00;13.20;;;;;;;;;;5073622;28;20454;-60
2023/12/08 08:10:32;;;;;;;16.27;12.67;;;;;;;;;;5072115;28;20039;-60
2023/12/08 08:12:58;;;;;;;19.40;13.90;;;;;;;;;;5073501;28;20040;-59
2023/12/08 08:15:24;;;;;;;16.60;12.37;;;;;;;;;;5073323;28;20032;-60
2023/12/08 08:17:50;;;;;;;15.70;13.23;;;;;;;;;;5073463;28;20386;-60
2023/12/08 08:20:17;;;;;;;17.37;13.33;;;;;;;;;;5073518;28;20028;-61
2023/12/08 08:22:43;;;;;;;16.57;14.10;;;;;;;;;;5073180;28;20017;-58
2023/12/08 08:25:09;;;;;;;16.40;13.20;;;;;;;;;;5073315;28;20119;-59
2023/12/08 08:27:36;;;;;;;17.60;13.23;;;;;;;;;;5072904;28;20027;-59
2023/12/08 08:30:03;;;;;;;18.27;13.70;;;;;;;;;;5073019;28;20386;-60
2023/12/08 08:32:29;;;;;;;18.23;13.00;;;;;;;;;;5073121;28;20031;-61
2023/12/08 08:34:55;;;;;;;17.73;14.07;;;;;;;;;;5071758;28;20032;-60
2023/12/08 08:37:22;;;;;;;16.10;13.33;;;;;;;;;;5073220;28;20362;-60
2023/12/08 08:39:49;;;;;;;19.63;13.87;;;;;;;;;;5073094;28;20032;-59
2023/12/08 08:42:15;;;;;;;17.80;12.67;;;;;;;;;;5073275;28;20031;-60
2023/12/08 08:44:40;;;;;;;18.33;14.10;;;;;;;;;;5072867;28;20044;-60
2023/12/08 08:47:06;;;;;;;17.77;14.73;;;;;;;;;;5073068;28;20119;-60
2023/12/08 08:49:33;;;;;;;18.23;14.77;;;;;;;;;;5072699;28;20059;-61
2023/12/08 08:51:59;;;;;;;20.33;14.90;;;;;;;;;;5071601;28;20028;-61
2023/12/08 08:54:25;;;;;;;19.03;14.77;;;;;;;;;;5072868;28;20028;-60
2023/12/08 08:56:56;;;;;;;19.77;15.07;;;;;;;;;;5059120;28;20036;-61
2023/12/08 08:59:22;;;;;;;17.57;14.27;;;;;;;;;;5072718;28;20025;-61
2023/12/08 09:01:48;;;;;;;16.17;14.37;;;;;;;;;;5071764;28;20013;-59
2023/12/08 09:04:14;;;;;;;19.73;14.60;;;;;;;;;;5072474;28;20052;-59
2023/12/08 09:06:40;;;;;;;15.90;13.90;;;;;;;;;;5058512;28;20024;-59
2023/12/08 09:09:08;;;;;;;20.57;14.87;;;;;;;;;;5072440;28;20501;-59
2023/12/08 09:11:34;;;;;;;20.83;15.80;;;;;;;;;;5072481;28;20016;-59
2023/12/08 09:14:00;;;;;;;20.00;15.03;;;;;;;;;;5063994;28;20471;-59
2023/12/08 09:16:25;;;;;;;17.90;14.40;;;;;;;;;;5071269;28;20012;-59
2023/12/08 09:18:52;;;;;;;18.37;15.57;;;;;;;;;;5070924;28;20433;-59
2023/12/08 09:21:18;;;;;;;19.20;15.33;;;;;;;;;;5058203;28;20477;-59
2023/12/08 09:23:44;;;;;;;18.63;15.27;;;;;;;;;;5071302;28;20031;-59
2023/12/08 09:26:10;;;;;;;17.70;15.37;;;;;;;;;;5057622;28;20028;-59
2023/12/08 09:28:36;;;;;;;19.23;15.17;;;;;;;;;;5070635;28;20027;-59
2023/12/08 09:31:02;;;;;;;19.27;15.33;;;;;;;;;;5071888;28;20043;-59
2023/12/08 09:33:28;;;;;;;20.57;15.80;;;;;;;;;;5070632;28;20075;-60
2023/12/08 09:35:55;;;;;;;18.37;15.23;;;;;;;;;;5072123;28;20039;-59
2023/12/08 09:38:21;;;;;;;19.27;15.63;;;;;;;;;;5072151;28;20428;-59
2023/12/08 09:40:47;;;;;;;18.90;15.30;;;;;;;;;;5071966;28;20032;-60
2023/12/08 09:43:19;;;;;;;18.33;15.43;;;;;;;;;;5072050;28;20020;-60
2023/12/08 09:45:46;;;;;;;17.53;14.50;;;;;;;;;;5071684;28;20113;-59
2023/12/08 09:48:13;;;;;;;19.67;15.43;;;;;;;;;;5071944;28;20028;-60
2023/12/08 09:50:40;;;;;;;17.80;15.93;;;;;;;;;;5071721;28;20043;-60
2023/12/08 09:53:08;;;;;;;15.83;13.97;;;;;;;;;;5072117;28;20024;-59
2023/12/08 09:55:37;;;;;;;17.93;15.33;;;;;;;;;;5071868;28;20409;-59
2023/12/08 09:58:04;;;;;;;18.23;15.17;;;;;;;;;;5071902;28;20063;-60
2023/12/08 10:00:31;;;;;;;21.07;15.93;;;;;;;;;;5071854;28;20017;-60
2023/12/08 10:02:57;;;;;;;20.33;16.03;;;;;;;;;;5071835;28;20052;-59
2023/12/08 10:05:23;;;;;;;20.93;16.50;;;;;;;;;;5071836;28;20435;-59
2023/12/08 10:07:49;;;;;;;22.57;16.00;;;;;;;;;;5071825;28;20020;-59
2023/12/08 10:10:15;;;;;;;21.93;17.23;;;;;;;;;;5071740;28;20043;-59
2023/12/08 10:12:42;;;;;;;23.60;18.17;;;;;;;;;;5073645;28;20020;-59
2023/12/08 10:15:09;;;;;;;20.83;17.80;;;;;;;;;;5075700;28;20040;-59
2023/12/08 10:17:46;;;;;;;22.83;17.03;;;;;;;;;;5075743;28;20331;-59
2023/12/08 10:20:12;;;;;;;21.67;17.50;;;;;;;;;;5055687;28;20029;-60
2023/12/08 10:22:46;;;;;;;21.53;17.53;;;;;;;;;;5077481;28;20109;-69
2023/12/08 10:25:14;;;;;;;20.97;18.23;;;;;;;;;;5074448;28;20092;-60
2023/12/08 10:27:40;;;;;;;20.60;16.80;;;;;;;;;;5075076;28;20017;-63
2023/12/08 10:30:06;;;;;;;20.77;17.67;;;;;;;;;;5075214;28;20359;-63
2023/12/08 10:32:33;;;;;;;20.07;17.20;;;;;;;;;;5075480;28;20021;-64
2023/12/08 10:34:59;;;;;;;22.63;18.37;;;;;;;;;;5073145;28;20024;-63
2023/12/08 10:37:25;;;;;;;24.30;17.93;;;;;;;;;;5074872;28;20023;-64
2023/12/08 10:39:52;;;;;;;24.87;18.33;;;;;;;;;;5073433;28;20489;-64
2023/12/08 10:42:18;;;;;;;27.03;19.60;;;;;;;;;;5075088;28;20027;-64
2023/12/08 10:44:47;;;;;;;24.87;20.00;;;;;;;;;;5074976;28;20044;-63
2023/12/08 10:47:14;;;;;;;26.33;20.07;;;;;;;;;;5069774;28;20031;-64
2023/12/08 10:49:40;;;;;;;28.00;19.53;;;;;;;;;;5065585;28;20048;-63
2023/12/08 10:52:07;;;;;;;24.80;18.17;;;;;;;;;;5074828;28;20024;-63
2023/12/08 10:54:33;;;;;;;24.17;20.13;;;;;;;;;;5073281;28;20052;-63
2023/12/08 10:56:59;;;;;;;26.50;19.90;;;;;;;;;;5074337;28;20446;-63
2023/12/08 10:59:26;;;;;;;22.20;18.47;;;;;;;;;;5074449;28;20039;-63
2023/12/08 11:01:52;;;;;;;23.90;18.93;;;;;;;;;;5074721;28;20032;-62
2023/12/08 11:04:22;;;;;;;23.20;19.48;;;;;;;;;;5074438;28;20105;-62
2023/12/08 11:06:58;;;;;;;23.93;19.67;;;;;;;;;;5074710;28;20028;-63
2023/12/08 11:09:26;;;;;;;27.13;21.77;;;;;;;;;;5073057;28;20028;-63
2023/12/08 11:11:58;;;;;;;24.27;20.00;;;;;;;;;;5068024;28;20381;-62
2023/12/08 11:14:29;;;;;;;22.33;19.67;;;;;;;;;;5074136;28;20377;-63
2023/12/08 11:17:07;;;;;;;23.83;20.27;;;;;;;;;;5074294;28;20028;-63
2023/12/08 11:19:34;;;;;;;27.27;22.17;;;;;;;;;;5074132;28;20112;-63
2023/12/08 11:22:01;;;;;;;23.13;19.47;;;;;;;;;;5063481;28;20025;-63
2023/12/08 11:24:27;;;;;;;20.90;18.67;;;;;;;;;;5070425;28;20024;-63
2023/12/08 11:26:57;;;;;;;24.57;19.67;;;;;;;;;;5072461;28;20039;-63
2023/12/08 11:29:32;;;;;;;23.53;18.90;;;;;;;;;;5073701;28;20033;-63
2023/12/08 11:32:14;;;;;;;23.37;20.20;;;;;;;;;;5074042;28;20025;-63
2023/12/08 11:34:43;;;;;;;23.67;19.87;;;;;;;;;;5074181;28;20028;-63
2023/12/08 11:37:11;;;;;;;22.33;19.10;;;;;;;;;;5072161;28;20103;-63
2023/12/08 11:39:37;;;;;;;23.13;18.57;;;;;;;;;;5073744;28;20074;-63
2023/12/08 11:42:16;;;;;;;24.40;20.17;;;;;;;;;;5073956;28;20029;-63
2023/12/08 11:44:49;;;;;;;26.00;19.50;;;;;;;;;;5061817;28;20095;-63
2023/12/08 11:47:16;;;;;;;20.90;17.63;;;;;;;;;;5072493;28;20466;-63
2023/12/08 11:49:43;;;;;;;25.00;19.20;;;;;;;;;;5073476;28;20102;-63
2023/12/08 11:52:18;;;;;;;22.63;18.30;;;;;;;;;;5073436;28;20382;-63
2023/12/08 11:55:09;;;;;;;21.88;17.85;;;;;;;;;;5073865;28;20032;-63
2023/12/08 11:57:38;;;;;;;17.93;15.93;;;;;;;;;;5073265;28;20059;-64
2023/12/08 12:00:17;;;;;;;20.67;17.23;;;;;;;;;;5070501;28;20024;-64
2023/12/08 12:02:43;;;;;;;22.67;19.67;;;;;;;;;;5066957;28;20028;-63
2023/12/08 12:05:10;;;;;;;20.90;17.67;;;;;;;;;;5070283;28;20025;-64
2023/12/08 12:07:37;;;;;;;19.43;16.50;;;;;;;;;;5067900;28;20028;-64
2023/12/08 12:10:04;;;;;;;21.27;18.67;;;;;;;;;;5071062;28;20048;-63
2023/12/08 12:12:31;;;;;;;24.77;21.10;;;;;;;;;;5070500;28;20131;-64
2023/12/08 12:15:00;;;;;;;24.90;20.90;;;;;;;;;;5066761;28;20047;-63
2023/12/08 12:17:26;;;;;;;26.13;20.90;;;;;;;;;;5071770;28;20021;-63
2023/12/08 12:19:52;;;;;;;22.83;19.67;;;;;;;;;;5072906;28;20028;-63
2023/12/08 12:22:19;;;;;;;26.43;20.17;;;;;;;;;;5072971;28;20078;-63
2023/12/08 12:24:46;;;;;;;31.20;22.37;;;;;;;;;;5071524;28;20043;-63
2023/12/08 12:27:12;;;;;;;26.63;21.30;;;;;;;;;;5072579;28;20362;-63
2023/12/08 12:29:38;;;;;;;24.97;19.40;;;;;;;;;;5072746;28;20112;-63
2023/12/08 12:32:07;;;;;;;26.03;20.03;;;;;;;;;;5072666;28;20543;-63
2023/12/08 12:34:33;;;;;;;27.07;21.70;;;;;;;;;;5072629;28;20107;-63
2023/12/08 12:36:59;;;;;;;26.00;21.80;;;;;;;;;;5071730;28;20031;-64
2023/12/08 12:39:25;;;;;;;24.77;20.27;;;;;;;;;;5072791;28;20541;-64
2023/12/08 12:41:56;;;;;;;28.43;23.60;;;;;;;;;;5072988;28;20024;-63
2023/12/08 12:44:22;;;;;;;26.93;23.67;;;;;;;;;;5070504;28;20452;-63
2023/12/08 12:46:48;;;;;;;27.67;23.03;;;;;;;;;;5060920;28;20051;-64
2023/12/08 12:49:15;;;;;;;28.37;22.87;;;;;;;;;;5070890;28;20502;-63
2023/12/08 12:51:42;;;;;;;30.57;23.53;;;;;;;;;;5070927;28;20028;-63
2023/12/08 12:54:08;;;;;;;27.97;23.67;;;;;;;;;;5070899;28;20100;-64
2023/12/08 12:56:35;;;;;;;27.43;21.83;;;;;;;;;;5068333;28;20144;-63
2023/12/08 12:59:02;;;;;;;29.53;24.60;;;;;;;;;;5062204;28;20013;-63
2023/12/08 13:01:28;;;;;;;32.87;25.27;;;;;;;;;;5070615;28;20028;-63
2023/12/08 13:03:55;;;;;;;32.40;25.53;;;;;;;;;;5070786;28;20492;-63
2023/12/08 13:06:32;;;;;;;29.47;23.60;;;;;;;;;;5072082;28;20497;-63
2023/12/08 13:08:58;;;;;;;26.67;21.90;;;;;;;;;;5072287;28;20077;-63
2023/12/08 13:20:35;;;;;;;25.87;21.60;;;;;;;;;;5068997;28;20082;-63
2023/12/08 13:23:01;;;;;;;24.58;20.85;;;;;;;;;;5060150;28;20025;-64
2023/12/08 13:25:27;;;;;;;26.83;21.75;;;;;;;;;;5069602;28;20055;-63
2023/12/08 13:27:53;;;;;;;29.77;24.73;;;;;;;;;;5071744;28;20028;-63
2023/12/08 13:30:19;;;;;;;28.90;23.70;;;;;;;;;;5070353;28;20411;-64
2023/12/08 13:32:46;;;;;;;27.17;21.93;;;;;;;;;;5071853;28;20020;-63
2023/12/08 13:35:12;;;;;;;26.33;22.17;;;;;;;;;;5070460;28;20416;-63
2023/12/08 13:37:38;;;;;;;23.83;20.40;;;;;;;;;;5057602;28;20027;-63
2023/12/08 13:40:05;;;;;;;23.80;20.63;;;;;;;;;;5072079;28;20021;-63
2023/12/08 13:42:31;;;;;;;25.27;20.17;;;;;;;;;;5071749;28;20032;-63
2023/12/08 13:44:59;;;;;;;23.37;19.30;;;;;;;;;;5071483;28;20072;-63
2023/12/08 13:47:25;;;;;;;23.37;19.30;;;;;;;;;;5071239;28;20470;-63
2023/12/08 13:49:51;;;;;;;23.80;19.60;;;;;;;;;;5071631;28;20040;-63
2023/12/08 13:52:17;;;;;;;21.43;19.03;;;;;;;;;;5070236;28;20017;-64
2023/12/08 13:54:43;;;;;;;21.60;19.17;;;;;;;;;;5071564;28;20051;-64
2023/12/08 13:57:10;;;;;;;21.13;18.57;;;;;;;;;;5071478;28;20020;-63
2023/12/08 13:59:36;;;;;;;23.73;21.13;;;;;;;;;;5071577;28;20486;-64
2023/12/08 14:02:02;;;;;;;22.93;19.10;;;;;;;;;;5071784;28;20105;-64
2023/12/08 14:04:28;;;;;;;22.73;19.63;;;;;;;;;;5071561;28;20032;-64
2023/12/08 14:06:54;;;;;;;22.50;19.33;;;;;;;;;;5071525;28;20028;-64
2023/12/08 14:09:22;;;;;;;25.20;20.27;;;;;;;;;;5071363;28;20041;-63
2023/12/08 14:11:48;;;;;;;23.23;19.30;;;;;;;;;;5057928;28;20028;-64
2023/12/08 14:14:14;;;;;;;22.13;19.70;;;;;;;;;;5071420;28;20028;-63
2023/12/08 14:16:40;;;;;;;25.20;21.27;;;;;;;;;;5071283;28;20024;-64
2023/12/08 14:19:06;;;;;;;23.83;20.77;;;;;;;;;;5070967;28;20334;-64
2023/12/08 14:21:34;;;;;;;25.43;20.83;;;;;;;;;;5071246;28;20017;-64
2023/12/08 14:24:00;;;;;;;23.53;20.27;;;;;;;;;;5071508;28;20055;-65
2023/12/08 14:26:26;;;;;;;24.20;20.93;;;;;;;;;;5071263;28;20394;-64
2023/12/08 14:28:52;;;;;;;24.07;21.03;;;;;;;;;;5056920;28;20020;-64
2023/12/08 14:31:18;;;;;;;24.67;20.63;;;;;;;;;;5071303;28;20029;-64
2023/12/08 14:33:44;;;;;;;23.20;19.77;;;;;;;;;;5071286;28;20024;-64
2023/12/08 14:36:10;;;;;;;22.30;19.00;;;;;;;;;;5062360;28;20056;-64
2023/12/08 14:38:36;;;;;;;22.10;19.43;;;;;;;;;;5061118;28;20024;-64